createdAt,value
2023-02-09T00:00:09.089Z,2.28
2023-02-09T00:03:04.040Z,1.67
2023-02-09T00:05:32.664Z,0.81
2023-02-09T00:08:01.113Z,0.11
2023-02-09T00:10:29.587Z,-0.45
2023-02-09T00:13:16.473Z,-0.54
2023-02-09T00:15:55.368Z,0.15
2023-02-09T00:18:25.679Z,0.76
2023-02-09T00:21:03.269Z,1.22
2023-02-09T00:23:32.894Z,1.59
2023-02-09T00:26:08.486Z,1.88
2023-02-09T00:28:37.426Z,1.67
2023-02-09T00:31:10.977Z,0.77
2023-02-09T00:33:42.135Z,-0.05
2023-02-09T00:36:14.555Z,-0.65
2023-02-09T00:38:44.117Z,-0.83
2023-02-09T00:41:14.408Z,-0.23
2023-02-09T00:43:43.060Z,0.38
2023-02-09T00:46:11.569Z,0.85
2023-02-09T00:48:40.057Z,1.22
2023-02-09T00:51:08.484Z,1.53
2023-02-09T00:53:37.478Z,1.79
2023-02-09T00:56:06.651Z,1.62
2023-02-09T00:58:35.117Z,0.73
2023-02-09T01:01:03.754Z,-0.05
2023-02-09T01:03:32.257Z,-0.67
2023-02-09T01:06:00.894Z,-1.03
2023-02-09T01:08:29.468Z,-0.56
2023-02-09T01:10:57.887Z,0.08
2023-02-09T01:13:26.641Z,0.58
2023-02-09T01:15:55.102Z,0.96
2023-02-09T01:18:23.590Z,1.27
2023-02-09T01:20:51.989Z,1.53
2023-02-09T01:23:20.455Z,1.51
2023-02-09T01:25:48.887Z,0.70
2023-02-09T01:28:17.365Z,-0.11
2023-02-09T01:30:46.151Z,-0.74
2023-02-09T01:33:15.905Z,-1.23
2023-02-09T01:35:44.393Z,-1.16
2023-02-09T01:38:13.184Z,-0.50
2023-02-09T01:40:50.380Z,0.11
2023-02-09T01:43:18.870Z,0.60
2023-02-09T01:45:51.951Z,1.00
2023-02-09T01:48:24.525Z,1.35
2023-02-09T01:50:57.922Z,1.67
2023-02-09T01:53:28.430Z,1.63
2023-02-09T01:56:11.598Z,0.78
2023-02-09T01:58:40.317Z,-0.09
2023-02-09T02:01:09.449Z,-0.69
2023-02-09T02:03:38.073Z,-1.19
2023-02-09T02:06:11.880Z,-1.38
2023-02-09T02:08:45.998Z,-0.76
2023-02-09T02:11:15.320Z,-0.10
2023-02-09T02:13:45.053Z,0.41
2023-02-09T02:16:25.613Z,0.81
2023-02-09T02:19:19.213Z,1.15
2023-02-09T02:22:08.771Z,0.97
2023-02-09T02:24:55.588Z,-0.01
2023-02-09T02:27:39.211Z,-0.80
2023-02-09T02:30:20.487Z,-1.38
2023-02-09T02:33:23.380Z,-1.16
2023-02-09T02:36:07.235Z,-0.39
2023-02-09T02:39:04.714Z,0.19
2023-02-09T02:42:03.664Z,0.66
2023-02-09T02:44:37.646Z,1.03
2023-02-09T02:47:09.149Z,1.35
2023-02-09T02:49:42.950Z,1.58
2023-02-09T02:52:12.193Z,1.17
2023-02-09T02:54:46.032Z,0.26
2023-02-09T02:57:19.548Z,-0.50
2023-02-09T02:59:57.931Z,-1.10
2023-02-09T03:02:35.288Z,-1.34
2023-02-09T03:05:05.864Z,-0.75
2023-02-09T03:07:34.487Z,-0.15
2023-02-09T03:10:23.055Z,0.34
2023-02-09T03:13:29.407Z,0.74
2023-02-09T03:16:13.006Z,1.11
2023-02-09T03:19:05.570Z,1.38
2023-02-09T03:22:21.722Z,1.57
2023-02-09T03:25:02.504Z,0.65
2023-02-09T03:27:39.092Z,-0.24
2023-02-09T03:30:11.846Z,-0.90
2023-02-09T03:32:42.614Z,-1.40
2023-02-09T03:35:15.063Z,-1.27
2023-02-09T03:37:43.746Z,-0.63
2023-02-09T03:40:12.611Z,-0.06
2023-02-09T03:42:41.360Z,0.39
2023-02-09T03:45:09.972Z,0.74
2023-02-09T03:47:38.451Z,1.03
2023-02-09T03:50:07.740Z,1.28
2023-02-09T03:52:36.577Z,1.41
2023-02-09T03:55:05.585Z,0.74
2023-02-09T03:57:34.105Z,-0.14
2023-02-09T04:00:04.205Z,-0.83
2023-02-09T04:02:40.439Z,-1.41
2023-02-09T04:05:09.609Z,-1.56
2023-02-09T04:07:38.223Z,-0.97
2023-02-09T04:10:07.158Z,-0.37
2023-02-09T04:12:35.701Z,0.14
2023-02-09T04:15:04.277Z,0.52
2023-02-09T04:17:32.757Z,0.82
2023-02-09T04:20:01.205Z,1.08
2023-02-09T04:22:29.707Z,1.26
2023-02-09T04:24:58.348Z,0.74
2023-02-09T04:27:28.670Z,-0.14
2023-02-09T04:29:57.251Z,-0.86
2023-02-09T04:32:25.737Z,-1.42
2023-02-09T04:34:54.252Z,-1.60
2023-02-09T04:37:22.888Z,-1.03
2023-02-09T04:39:51.349Z,-0.41
2023-02-09T04:42:19.779Z,0.07
2023-02-09T04:44:48.244Z,0.44
2023-02-09T04:47:16.920Z,0.74
2023-02-09T04:49:45.375Z,1.01
2023-02-09T04:52:13.806Z,1.24
2023-02-09T04:54:42.363Z,0.99
2023-02-09T04:57:29.906Z,0.10
2023-02-09T04:59:58.316Z,-0.76
2023-02-09T05:02:26.767Z,-1.33
2023-02-09T05:04:55.542Z,-1.54
2023-02-09T05:07:26.689Z,-0.98
2023-02-09T05:09:55.136Z,-0.37
2023-02-09T05:12:23.558Z,0.09
2023-02-09T05:14:52.122Z,0.45
2023-02-09T05:17:21.388Z,0.76
2023-02-09T05:19:49.897Z,1.01
2023-02-09T05:22:18.331Z,1.06
2023-02-09T05:24:46.810Z,0.31
2023-02-09T05:27:15.510Z,-0.51
2023-02-09T05:29:43.974Z,-1.15
2023-02-09T05:32:12.614Z,-1.66
2023-02-09T05:34:41.142Z,-1.67
2023-02-09T05:37:09.603Z,-1.05
2023-02-09T05:39:38.051Z,-0.47
2023-02-09T05:42:15.562Z,-0.00
2023-02-09T05:44:45.992Z,0.41
2023-02-09T05:47:17.077Z,0.73
2023-02-09T05:49:45.544Z,0.85
2023-02-09T05:52:16.854Z,0.17
2023-02-09T05:54:48.074Z,-0.64
2023-02-09T05:57:17.486Z,-1.26
2023-02-09T05:59:45.945Z,-1.74
2023-02-09T06:02:14.502Z,-1.88
2023-02-09T06:04:43.032Z,-1.29
2023-02-09T06:07:12.119Z,-0.63
2023-02-09T06:09:40.791Z,-0.12
2023-02-09T06:12:09.289Z,0.32
2023-02-09T06:14:37.827Z,0.67
2023-02-09T06:17:06.373Z,0.63
2023-02-09T06:19:34.851Z,-0.14
2023-02-09T06:22:03.276Z,-0.84
2023-02-09T06:24:31.762Z,-1.37
2023-02-09T06:27:00.326Z,-1.78
2023-02-09T06:29:28.863Z,-1.91
2023-02-09T06:31:57.464Z,-1.28
2023-02-09T06:34:26.192Z,-0.58
2023-02-09T06:36:54.793Z,-0.02
2023-02-09T06:39:24.635Z,0.43
2023-02-09T06:41:53.170Z,0.82
2023-02-09T06:44:21.647Z,1.12
2023-02-09T06:46:50.236Z,0.78
2023-02-09T06:49:19.185Z,0.00
2023-02-09T06:51:48.197Z,-0.61
2023-02-09T06:54:17.184Z,-1.02
2023-02-09T06:56:45.826Z,-1.27
2023-02-09T06:59:14.328Z,-0.85
2023-02-09T07:01:43.102Z,0.05
2023-02-09T07:04:11.595Z,0.84
2023-02-09T07:06:40.003Z,1.50
2023-02-09T07:09:08.761Z,1.52
2023-02-09T07:11:37.280Z,0.95
2023-02-09T07:14:06.055Z,0.48
2023-02-09T07:16:34.516Z,0.16
2023-02-09T07:19:03.026Z,-0.08
2023-02-09T07:21:31.707Z,-0.28
2023-02-09T07:24:00.151Z,-0.46
2023-02-09T07:26:28.706Z,-0.22
2023-02-09T07:28:57.182Z,0.63
2023-02-09T07:31:27.410Z,1.42
2023-02-09T07:33:57.364Z,1.97
2023-02-09T07:36:25.999Z,1.64
2023-02-09T07:38:56.102Z,1.08
2023-02-09T07:41:25.547Z,0.67
2023-02-09T07:43:55.664Z,0.37
2023-02-09T07:46:25.857Z,0.22
2023-02-09T07:48:54.320Z,0.85
2023-02-09T07:51:26.651Z,1.73
2023-02-09T07:53:56.505Z,2.45
2023-02-09T07:56:26.020Z,2.49
2023-02-09T07:58:55.437Z,1.92
2023-02-09T08:01:25.139Z,1.44
2023-02-09T08:03:53.714Z,1.12
2023-02-09T08:06:43.780Z,0.87
2023-02-09T08:09:15.452Z,1.05
2023-02-09T08:11:47.678Z,1.92
2023-02-09T08:14:44.631Z,2.71
2023-02-09T08:17:28.243Z,2.84
2023-02-09T08:20:01.184Z,2.27
2023-02-09T08:22:33.831Z,1.83
2023-02-09T08:25:04.558Z,1.52
2023-02-09T08:27:33.193Z,1.30
2023-02-09T08:30:03.129Z,1.12
2023-02-09T08:32:31.818Z,0.99
2023-02-09T08:35:00.288Z,1.11
2023-02-09T08:37:29.458Z,1.96
2023-02-09T08:39:57.924Z,2.83
2023-02-09T08:42:26.416Z,3.38
2023-02-09T08:44:54.921Z,3.06
2023-02-09T08:47:23.426Z,2.63
2023-02-09T08:49:52.736Z,2.30
2023-02-09T08:52:21.210Z,2.09
2023-02-09T08:54:49.686Z,1.94
2023-02-09T08:57:18.246Z,1.80
2023-02-09T08:59:46.766Z,1.70
2023-02-09T09:02:15.338Z,1.72
2023-02-09T09:04:43.800Z,2.38
2023-02-09T09:07:12.543Z,3.15
2023-02-09T09:09:41.191Z,3.51
2023-02-09T09:12:09.669Z,3.10
2023-02-09T09:14:38.422Z,2.64
2023-02-09T09:17:06.922Z,2.29
2023-02-09T09:19:35.411Z,2.07
2023-02-09T09:22:04.126Z,1.88
2023-02-09T09:24:32.989Z,1.80
2023-02-09T09:27:01.515Z,2.37
2023-02-09T09:29:30.131Z,3.21
2023-02-09T09:31:58.697Z,3.29
2023-02-09T09:34:27.183Z,2.87
2023-02-09T09:36:55.628Z,2.53
2023-02-09T09:39:25.943Z,2.28
2023-02-09T09:41:59.828Z,2.12
2023-02-09T09:44:33.505Z,2.04
2023-02-09T09:47:10.231Z,2.32
2023-02-09T09:49:39.711Z,3.20
2023-02-09T09:52:23.242Z,3.44
2023-02-09T09:54:52.304Z,3.11
2023-02-09T09:57:25.311Z,2.89
2023-02-09T09:59:54.898Z,2.76
2023-02-09T10:02:31.105Z,2.71
2023-02-09T10:05:18.287Z,2.67
2023-02-09T10:08:02.981Z,2.69
2023-02-09T10:10:34.198Z,2.74
2023-02-09T10:13:08.287Z,2.77
2023-02-09T10:15:37.449Z,2.79
2023-02-09T10:18:13.932Z,2.84
2023-02-09T10:20:42.368Z,2.90
2023-02-09T10:23:22.263Z,2.94
2023-02-09T10:26:05.168Z,3.34
2023-02-09T10:28:45.916Z,4.41
2023-02-09T10:31:34.043Z,4.94
2023-02-09T10:34:11.659Z,4.69
2023-02-09T10:36:46.239Z,4.50
2023-02-09T10:39:18.191Z,4.41
2023-02-09T10:41:53.795Z,4.34
2023-02-09T10:44:35.219Z,4.30
2023-02-09T10:47:09.877Z,4.27
2023-02-09T10:49:42.640Z,4.26
2023-02-09T10:52:20.347Z,4.24
2023-02-09T10:54:59.924Z,4.22
2023-02-09T10:57:36.890Z,4.22
2023-02-09T11:00:17.762Z,4.22
2023-02-09T11:02:55.273Z,4.24
2023-02-09T11:05:24.033Z,4.25
2023-02-09T11:08:01.549Z,4.30
2023-02-09T11:10:35.390Z,4.37
2023-02-09T11:13:17.904Z,4.42
2023-02-09T11:16:13.358Z,4.49
2023-02-09T11:18:46.414Z,4.60
2023-02-09T11:21:24.424Z,4.75
2023-02-09T11:24:26.332Z,4.96
2023-02-09T11:27:06.576Z,5.25
2023-02-09T11:29:50.331Z,5.56
2023-02-09T11:32:26.674Z,5.94
2023-02-09T11:35:11.754Z,6.32
2023-02-09T11:37:56.562Z,6.73
2023-02-09T11:40:36.891Z,7.13
2023-02-09T11:43:19.135Z,7.58
2023-02-09T11:45:53.915Z,8.11
2023-02-09T11:48:31.477Z,8.61
2023-02-09T11:51:22.577Z,9.06
2023-02-09T11:54:07.730Z,9.40
2023-02-09T11:56:41.976Z,9.74
2023-02-09T11:59:31.486Z,10.16
2023-02-09T12:02:08.856Z,10.58
2023-02-09T12:04:53.481Z,10.86
2023-02-09T12:07:22.235Z,11.30
2023-02-09T12:10:29.136Z,11.79
2023-02-09T12:13:00.738Z,12.23
2023-02-09T12:15:44.766Z,12.56
2023-02-09T12:18:23.049Z,12.93
2023-02-09T12:20:54.626Z,13.26
2023-02-09T12:23:39.711Z,13.46
2023-02-09T12:26:17.161Z,13.74
2023-02-09T12:29:20.394Z,14.01
2023-02-09T12:32:04.186Z,14.30
2023-02-09T12:34:51.163Z,14.45
2023-02-09T12:37:27.323Z,14.69
2023-02-09T12:40:02.409Z,14.91
2023-02-09T12:43:03.416Z,15.08
2023-02-09T12:45:36.964Z,15.31
2023-02-09T12:48:08.211Z,15.52
2023-02-09T12:50:42.674Z,15.72
2023-02-09T12:53:23.758Z,15.93
2023-02-09T12:56:11.019Z,16.25
2023-02-09T12:58:55.156Z,16.50
2023-02-09T13:02:02.254Z,16.51
2023-02-09T13:04:52.279Z,16.43
2023-02-09T13:07:40.519Z,16.46
2023-02-09T13:10:41.675Z,16.52
2023-02-09T13:13:26.219Z,16.63
2023-02-09T13:15:54.683Z,16.69
2023-02-09T13:18:23.135Z,16.65
2023-02-09T13:21:04.725Z,16.58
2023-02-09T13:24:00.980Z,16.50
2023-02-09T13:26:33.111Z,16.42
2023-02-09T13:29:19.680Z,16.26
2023-02-09T13:32:16.471Z,16.28
2023-02-09T13:35:04.632Z,16.46
2023-02-09T13:37:48.064Z,16.52
2023-02-09T13:40:32.419Z,16.57
2023-02-09T13:43:17.727Z,16.48
2023-02-09T13:45:51.273Z,16.43
2023-02-09T13:48:24.638Z,16.44
2023-02-09T13:50:55.661Z,16.44
2023-02-09T13:53:26.133Z,16.44
2023-02-09T13:55:58.061Z,16.59
2023-02-09T13:58:30.944Z,16.89
2023-02-09T14:01:06.948Z,17.12
2023-02-09T14:03:56.683Z,17.15
2023-02-09T14:06:48.001Z,17.11
2023-02-09T14:09:33.542Z,17.14
2023-02-09T14:12:11.386Z,17.03
2023-02-09T14:15:03.367Z,16.94
2023-02-09T14:17:36.028Z,16.79
2023-02-09T14:20:20.552Z,16.70
2023-02-09T14:23:01.289Z,16.60
2023-02-09T14:25:31.678Z,16.37
2023-02-09T14:28:00.238Z,15.93
2023-02-09T14:30:36.651Z,15.56
2023-02-09T14:33:05.312Z,15.25
2023-02-09T14:35:39.621Z,15.01
2023-02-09T14:38:38.678Z,14.86
2023-02-09T14:41:29.103Z,14.70
2023-02-09T14:44:21.738Z,14.11
2023-02-09T14:46:55.737Z,13.21
2023-02-09T14:49:25.647Z,12.40
2023-02-09T14:52:14.234Z,11.70
2023-02-09T14:54:48.562Z,11.00
2023-02-09T14:57:17.173Z,10.42
2023-02-09T14:59:45.735Z,9.89
2023-02-09T15:02:21.760Z,9.41
2023-02-09T15:04:50.221Z,8.89
2023-02-09T15:07:30.118Z,8.41
2023-02-09T15:09:58.745Z,7.95
2023-02-09T15:12:29.488Z,7.54
2023-02-09T15:15:00.231Z,7.19
2023-02-09T15:17:30.778Z,6.85
2023-02-09T15:19:59.318Z,6.53
2023-02-09T15:22:27.798Z,6.23
2023-02-09T15:24:56.454Z,5.95
2023-02-09T15:27:33.764Z,5.69
2023-02-09T15:30:04.796Z,5.42
2023-02-09T15:32:33.798Z,5.16
2023-02-09T15:35:02.283Z,4.94
2023-02-09T15:37:37.493Z,4.71
2023-02-09T15:40:38.932Z,4.48
2023-02-09T15:43:35.082Z,4.24
2023-02-09T15:46:07.441Z,4.01
2023-02-09T15:48:37.107Z,3.80
2023-02-09T15:51:05.806Z,3.61
2023-02-09T15:53:34.574Z,3.43
2023-02-09T15:56:03.402Z,3.23
2023-02-09T15:58:36.109Z,3.04
2023-02-09T16:01:05.491Z,2.86
2023-02-09T16:03:34.274Z,2.70
2023-02-09T16:06:11.704Z,2.54
2023-02-09T16:08:40.161Z,2.37
2023-02-09T16:11:17.725Z,2.22
2023-02-09T16:13:46.491Z,2.08
2023-02-09T16:16:17.494Z,1.94
2023-02-09T16:18:47.319Z,1.81
2023-02-09T16:21:33.619Z,1.70
2023-02-09T16:24:05.339Z,1.58
2023-02-09T16:26:35.093Z,1.46
2023-02-09T16:29:03.819Z,1.36
2023-02-09T16:31:32.308Z,1.26
2023-02-09T16:34:00.778Z,1.17
2023-02-09T16:36:31.464Z,1.09
2023-02-09T16:38:59.963Z,1.01
2023-02-09T16:41:51.811Z,0.92
2023-02-09T16:44:22.453Z,0.84
2023-02-09T16:47:00.368Z,0.77
2023-02-09T16:49:43.205Z,0.69
2023-02-09T16:52:19.141Z,0.63
2023-02-09T16:54:54.822Z,0.56
2023-02-09T16:57:25.329Z,0.51
2023-02-09T16:59:54.773Z,0.46
2023-02-09T17:02:32.296Z,0.40
2023-02-09T17:05:04.116Z,0.35
2023-02-09T17:07:45.337Z,0.31
2023-02-09T17:10:25.279Z,0.28
2023-02-09T17:12:54.079Z,0.26
2023-02-09T17:15:30.803Z,0.23
2023-02-09T17:18:09.245Z,0.21
2023-02-09T17:20:50.172Z,0.21
2023-02-09T17:23:23.400Z,0.23
2023-02-09T17:25:55.329Z,0.23
2023-02-09T17:28:25.957Z,0.23
2023-02-09T17:31:01.302Z,0.23
2023-02-09T17:33:33.641Z,0.23
2023-02-09T17:36:25.301Z,0.25
2023-02-09T17:38:53.293Z,0.26
2023-02-09T17:41:30.423Z,0.28
2023-02-09T17:44:22.223Z,0.31
2023-02-09T17:46:53.925Z,0.34
2023-02-09T17:49:22.725Z,0.35
2023-02-09T17:51:52.387Z,0.36
2023-02-09T17:54:21.735Z,0.37
2023-02-09T17:56:50.162Z,0.38
2023-02-09T17:59:20.468Z,0.41
2023-02-09T18:01:55.403Z,0.44
2023-02-09T18:04:27.714Z,0.46
2023-02-09T18:06:57.810Z,0.49
2023-02-09T18:09:27.004Z,0.52
2023-02-09T18:12:02.307Z,0.54
2023-02-09T18:14:33.193Z,0.56
2023-02-09T18:17:02.921Z,0.58
2023-02-09T18:19:33.231Z,0.60
2023-02-09T18:22:03.189Z,0.63
2023-02-09T18:24:34.691Z,0.66
2023-02-09T18:27:03.621Z,0.68
2023-02-09T18:29:32.410Z,0.71
2023-02-09T18:32:02.935Z,0.73
2023-02-09T18:34:31.611Z,0.74
2023-02-09T18:37:00.178Z,0.77
2023-02-09T18:39:28.699Z,0.81
2023-02-09T18:41:57.740Z,0.86
2023-02-09T18:44:30.467Z,0.92
2023-02-09T18:47:02.791Z,0.96
2023-02-09T18:49:31.403Z,1.01
2023-02-09T18:51:59.910Z,1.05
2023-02-09T18:54:33.817Z,1.11
2023-02-09T18:57:02.450Z,1.16
2023-02-09T18:59:32.466Z,1.19
2023-02-09T19:02:01.239Z,1.22
2023-02-09T19:04:29.770Z,1.24
2023-02-09T19:06:58.864Z,1.24
2023-02-09T19:09:27.377Z,1.26
2023-02-09T19:11:55.918Z,1.27
2023-02-09T19:14:39.820Z,1.28
2023-02-09T19:17:13.575Z,1.29
2023-02-09T19:19:43.361Z,1.29
2023-02-09T19:22:17.402Z,1.29
2023-02-09T19:24:47.529Z,1.28
2023-02-09T19:27:19.261Z,1.28
2023-02-09T19:29:47.792Z,1.27
2023-02-09T19:32:16.287Z,1.27
2023-02-09T19:34:46.225Z,1.26
2023-02-09T19:37:15.911Z,1.26
2023-02-09T19:39:53.217Z,1.25
2023-02-09T19:42:22.781Z,1.24
2023-02-09T19:44:54.540Z,1.22
2023-02-09T19:47:26.160Z,1.21
2023-02-09T19:49:58.985Z,1.18
2023-02-09T19:52:28.160Z,1.16
2023-02-09T19:54:57.932Z,1.13
2023-02-09T19:57:26.710Z,1.11
2023-02-09T19:59:55.298Z,1.08
2023-02-09T20:02:23.815Z,1.04
2023-02-09T20:04:52.856Z,1.03
2023-02-09T20:07:21.580Z,1.00
2023-02-09T20:09:52.621Z,0.97
2023-02-09T20:12:22.196Z,0.94
2023-02-09T20:14:53.151Z,0.91
2023-02-09T20:17:22.266Z,0.89
2023-02-09T20:19:50.910Z,0.86
2023-02-09T20:22:19.505Z,0.83
2023-02-09T20:24:48.016Z,0.81
2023-02-09T20:27:16.608Z,0.79
2023-02-09T20:29:45.017Z,0.77
2023-02-09T20:32:13.623Z,0.76
2023-02-09T20:34:42.155Z,0.74
2023-02-09T20:37:10.630Z,0.72
2023-02-09T20:39:39.093Z,0.70
2023-02-09T20:42:26.588Z,0.68
2023-02-09T20:45:13.733Z,0.64
2023-02-09T20:47:42.184Z,0.60
2023-02-09T20:50:11.042Z,0.57
2023-02-09T20:52:40.477Z,0.53
2023-02-09T20:55:09.249Z,0.49
2023-02-09T20:57:38.064Z,0.47
2023-02-09T21:00:09.800Z,0.44
2023-02-09T21:02:39.161Z,0.41
2023-02-09T21:05:08.825Z,0.37
2023-02-09T21:07:37.393Z,0.34
2023-02-09T21:10:06.902Z,0.31
2023-02-09T21:12:35.352Z,0.28
2023-02-09T21:15:04.140Z,0.25
2023-02-09T21:17:32.612Z,0.22
2023-02-09T21:20:01.651Z,0.19
2023-02-09T21:22:30.127Z,0.16
2023-02-09T21:24:58.662Z,0.13
2023-02-09T21:27:27.403Z,0.09
2023-02-09T21:29:55.847Z,0.07
2023-02-09T21:32:24.301Z,0.06
2023-02-09T21:34:52.836Z,0.04
2023-02-09T21:37:23.059Z,0.02
2023-02-09T21:39:51.497Z,-0.01
2023-02-09T21:42:29.110Z,-0.04
2023-02-09T21:44:59.016Z,-0.09
2023-02-09T21:47:33.052Z,-0.13
2023-02-09T21:50:01.926Z,-0.17
2023-02-09T21:52:31.753Z,-0.22
2023-02-09T21:55:00.740Z,-0.25
2023-02-09T21:57:29.883Z,-0.29
2023-02-09T22:00:00.105Z,-0.33
2023-02-09T22:02:28.841Z,-0.38
2023-02-09T22:04:57.626Z,-0.43
2023-02-09T22:07:26.251Z,-0.47
2023-02-09T22:09:54.783Z,-0.51
2023-02-09T22:12:23.474Z,-0.56
2023-02-09T22:14:51.851Z,-0.59
2023-02-09T22:17:20.488Z,-0.63
2023-02-09T22:19:49.024Z,-0.67
2023-02-09T22:22:17.503Z,-0.71
2023-02-09T22:24:45.947Z,-0.74
2023-02-09T22:27:14.454Z,-0.78
2023-02-09T22:29:43.773Z,-0.81
2023-02-09T22:32:12.446Z,-0.84
2023-02-09T22:34:40.809Z,-0.87
2023-02-09T22:37:09.375Z,-0.89
2023-02-09T22:39:37.895Z,-0.92
2023-02-09T22:42:06.558Z,-0.94
2023-02-09T22:44:35.030Z,-0.96
2023-02-09T22:47:03.873Z,-0.82
2023-02-09T22:49:33.006Z,0.00
2023-02-09T22:52:01.512Z,0.89
2023-02-09T22:54:30.003Z,1.02
2023-02-09T22:56:58.590Z,0.63
2023-02-09T22:59:27.054Z,0.30
2023-02-09T23:01:55.675Z,0.07
2023-02-09T23:04:24.205Z,-0.11
2023-02-09T23:06:52.701Z,-0.27
2023-02-09T23:09:21.220Z,-0.38
2023-02-09T23:11:49.724Z,-0.48
2023-02-09T23:14:18.468Z,-0.56
2023-02-09T23:16:47.454Z,-0.64
2023-02-09T23:19:18.625Z,-0.71
2023-02-09T23:21:49.853Z,-0.79
2023-02-09T23:24:22.035Z,-0.85
2023-02-09T23:26:52.053Z,-0.73
2023-02-09T23:29:21.904Z,0.10
2023-02-09T23:31:50.685Z,0.87
2023-02-09T23:34:22.198Z,0.74
2023-02-09T23:36:51.229Z,0.34
2023-02-09T23:39:22.569Z,0.04
2023-02-09T23:41:51.231Z,-0.19
2023-02-09T23:44:20.943Z,-0.36
2023-02-09T23:46:49.713Z,-0.50
2023-02-09T23:49:18.261Z,-0.61
2023-02-09T23:51:47.133Z,-0.71
2023-02-09T23:54:15.625Z,-0.80
2023-02-09T23:56:46.215Z,-0.88
2023-02-09T23:59:15.974Z,-0.96
